createdAt,value
2018-12-11T00:00:01.610Z,13.44
2018-12-11T00:05:56.569Z,12.87
2018-12-11T00:11:51.561Z,12.18
2018-12-11T00:17:46.582Z,11.18
2018-12-11T00:23:41.600Z,10.62
2018-12-11T00:29:36.601Z,9.48
2018-12-11T00:35:31.594Z,7.89
2018-12-11T00:41:26.591Z,5.34
2018-12-11T00:47:21.588Z,4.25
2018-12-11T00:53:16.597Z,4.07
2018-12-11T00:59:11.588Z,4.68
2018-12-11T01:05:06.622Z,3
2018-12-11T01:11:01.601Z,3.37
2018-12-11T01:16:56.621Z,2.91
2018-12-11T01:22:51.635Z,4.23
2018-12-11T01:28:46.616Z,4.79
2018-12-11T01:34:41.599Z,3.03
2018-12-11T01:40:36.637Z,3.29
2018-12-11T01:46:31.693Z,3.6
2018-12-11T01:52:26.668Z,2.98
2018-12-11T01:58:21.608Z,3.32
2018-12-11T02:04:16.647Z,2.07
2018-12-11T02:10:11.758Z,2.53
2018-12-11T02:16:06.640Z,1.96
2018-12-11T02:22:01.619Z,2.16
2018-12-11T02:27:56.641Z,2.68
2018-12-11T02:33:51.634Z,1.85
2018-12-11T02:39:46.636Z,2.06
2018-12-11T02:45:41.685Z,1.94
2018-12-11T02:51:36.653Z,2.25
2018-12-11T02:57:31.660Z,1.99
2018-12-11T03:03:26.661Z,2.18
2018-12-11T03:09:21.707Z,2.22
2018-12-11T03:15:16.674Z,2.07
2018-12-11T03:21:11.706Z,2.35
2018-12-11T03:27:06.666Z,4.44
2018-12-11T03:33:01.666Z,2.7
2018-12-11T03:38:56.658Z,5.41
2018-12-11T03:44:51.676Z,6.58
2018-12-11T03:50:46.661Z,5.86
2018-12-11T03:56:41.674Z,6.13
2018-12-11T04:02:36.668Z,7.74
2018-12-11T04:08:31.696Z,7.26
2018-12-11T04:14:26.683Z,6.29
2018-12-11T04:20:21.680Z,4.42
2018-12-11T04:26:16.679Z,4.78
2018-12-11T04:32:11.726Z,3.73
2018-12-11T04:38:06.690Z,2.47
2018-12-11T04:44:01.712Z,1.9
2018-12-11T04:49:56.726Z,2.33
2018-12-11T04:55:51.691Z,2.57
2018-12-11T05:01:46.696Z,3.32
2018-12-11T05:07:41.712Z,2.95
2018-12-11T05:13:36.695Z,1.9
2018-12-11T05:19:31.705Z,1.96
2018-12-11T05:25:26.703Z,1.97
2018-12-11T05:31:21.703Z,2.48
2018-12-11T05:37:16.752Z,2.83
2018-12-11T05:43:11.706Z,3.41
2018-12-11T05:49:06.746Z,2.79
2018-12-11T05:55:01.726Z,3.49
2018-12-11T06:00:56.746Z,2.73
2018-12-11T06:06:51.737Z,3.36
2018-12-11T06:12:46.751Z,2.42
2018-12-11T06:18:41.721Z,2.89
2018-12-11T06:24:36.741Z,3.3
2018-12-11T06:30:31.772Z,2.73
2018-12-11T06:36:26.755Z,2.97
2018-12-11T06:42:21.749Z,3.92
2018-12-11T06:48:16.753Z,3.27
2018-12-11T06:54:11.771Z,3.89
2018-12-11T07:00:06.852Z,3.4
2018-12-11T07:06:01.765Z,4.61
2018-12-11T07:11:56.754Z,4.19
2018-12-11T07:17:51.792Z,4.01
2018-12-11T07:23:46.803Z,4.62
2018-12-11T07:29:41.776Z,2.66
2018-12-11T07:35:36.788Z,3.81
2018-12-11T07:41:31.788Z,4.05
2018-12-11T07:47:26.757Z,3.25
2018-12-11T07:53:21.772Z,4.99
2018-12-11T07:59:16.779Z,7.13
2018-12-11T08:05:11.788Z,6.1
2018-12-11T08:11:06.768Z,10.42
2018-12-11T08:17:01.788Z,11.22
2018-12-11T08:22:56.766Z,11.33
2018-12-11T08:28:51.830Z,12.51
2018-12-11T08:34:46.803Z,12.25
2018-12-11T08:40:41.765Z,27.1
2018-12-11T08:46:36.778Z,27.58
2018-12-11T08:52:31.793Z,18.97
2018-12-11T08:58:26.800Z,20.29
2018-12-11T09:04:21.803Z,20.74
2018-12-11T09:10:16.786Z,22.28
2018-12-11T09:16:11.798Z,22.2
2018-12-11T09:22:06.812Z,19.29
2018-12-11T09:28:01.829Z,18.88
2018-12-11T09:33:56.809Z,21.54
2018-12-11T09:39:51.831Z,19.86
2018-12-11T09:45:46.819Z,22.97
2018-12-11T09:51:41.813Z,26.61
2018-12-11T09:57:36.808Z,29.35
2018-12-11T10:03:31.915Z,31.34
2018-12-11T10:09:26.827Z,32.5
2018-12-11T10:15:21.814Z,29.72
2018-12-11T10:21:16.861Z,29.9
2018-12-11T10:27:11.879Z,26.97
2018-12-11T10:33:06.826Z,29.92
2018-12-11T10:39:01.831Z,26.91
2018-12-11T10:44:56.864Z,22.42
2018-12-11T10:50:51.911Z,20.78
2018-12-11T10:56:46.845Z,22.87
2018-12-11T11:02:41.841Z,23.21
2018-12-11T11:08:36.845Z,23.83
2018-12-11T11:14:31.883Z,29.44
2018-12-11T11:20:26.868Z,25.4
2018-12-11T11:26:21.855Z,28.26
2018-12-11T11:32:16.889Z,25.22
2018-12-11T11:38:11.880Z,23.9
2018-12-11T11:44:06.892Z,12.48
2018-12-11T11:50:01.893Z,2.27
2018-12-11T11:55:56.869Z,11.65
2018-12-11T12:01:51.909Z,6.13
2018-12-11T12:07:46.948Z,1.2
2018-12-11T12:13:41.894Z,1.37
2018-12-11T12:19:36.925Z,5.52
2018-12-11T12:25:31.948Z,7.35
2018-12-11T12:31:26.915Z,14.78
2018-12-11T12:37:21.909Z,13.27
2018-12-11T12:43:16.921Z,14.08
2018-12-11T12:49:11.918Z,14.1
2018-12-11T12:55:06.912Z,12.56
2018-12-11T13:01:01.927Z,11.94
2018-12-11T13:06:56.919Z,9.66
2018-12-11T13:12:51.910Z,7.79
2018-12-11T13:18:46.940Z,7.17
2018-12-11T13:24:41.939Z,5.85
2018-12-11T13:30:36.939Z,2.59
2018-12-11T13:36:32.248Z,1.12
2018-12-11T13:42:26.930Z,1.96
2018-12-11T13:48:23.410Z,8.2
2018-12-11T13:54:16.950Z,1.8
2018-12-11T14:00:11.971Z,2.35
2018-12-11T14:06:06.996Z,4.18
2018-12-11T14:12:01.979Z,5.18
2018-12-11T14:17:56.988Z,1.74
2018-12-11T14:23:51.970Z,2.17
2018-12-11T14:29:46.958Z,1.28
2018-12-11T14:35:41.959Z,1.77
2018-12-11T14:41:37.003Z,4.65
2018-12-11T14:47:31.988Z,5.73
2018-12-11T14:53:26.989Z,2.48
2018-12-11T14:59:21.975Z,5.77
2018-12-11T15:05:17.026Z,1.57
2018-12-11T15:11:12.027Z,4.41
2018-12-11T15:17:07.002Z,1.63
2018-12-11T15:23:02.041Z,0.99
2018-12-11T15:28:57.016Z,0.95
2018-12-11T15:34:52.038Z,0.91
2018-12-11T15:40:47.037Z,41.68
2018-12-11T15:46:42.033Z,7.2
2018-12-11T15:52:37.061Z,5.2
2018-12-11T15:58:32.023Z,3.85
2018-12-11T16:04:27.043Z,3.03
2018-12-11T16:10:22.046Z,2.6
2018-12-11T16:16:17.042Z,2.7
2018-12-11T16:22:12.091Z,1.81
2018-12-11T16:28:07.035Z,2.21
2018-12-11T16:34:02.071Z,2.04
2018-12-11T16:39:57.052Z,1.27
2018-12-11T16:45:52.092Z,2.38
2018-12-11T16:51:47.102Z,1.07
2018-12-11T16:57:42.101Z,1.03
2018-12-11T17:03:37.051Z,1.2
2018-12-11T17:09:32.095Z,1.1
2018-12-11T17:15:27.101Z,1.5
2018-12-11T17:21:22.685Z,1.37
2018-12-11T17:27:17.096Z,0.63
2018-12-11T17:33:12.087Z,0.66
2018-12-11T17:39:07.094Z,0.6
2018-12-11T17:45:02.122Z,0.85
2018-12-11T17:50:57.119Z,0.75
2018-12-11T17:56:52.089Z,7.47
2018-12-11T18:02:47.100Z,11.82
2018-12-11T18:08:42.105Z,7.66
2018-12-11T18:14:37.112Z,9.4
2018-12-11T18:20:32.140Z,11.87
2018-12-11T18:26:27.127Z,14.85
2018-12-11T18:32:24.986Z,12.15
2018-12-11T18:38:17.127Z,6.58
2018-12-11T18:44:12.124Z,10.48
2018-12-11T18:50:07.166Z,2.75
2018-12-11T18:56:02.154Z,9.15
2018-12-11T19:01:57.139Z,5.3
2018-12-11T19:07:52.145Z,2.13
2018-12-11T19:13:47.152Z,3.9
2018-12-11T19:19:42.159Z,5.64
2018-12-11T19:25:37.170Z,5.39
2018-12-11T19:31:32.188Z,3.32
2018-12-11T19:37:27.154Z,6.28
2018-12-11T19:43:22.191Z,12.27
2018-12-11T19:49:17.159Z,6.84
2018-12-11T19:55:12.194Z,4.21
2018-12-11T20:01:07.208Z,5.2
2018-12-11T20:07:02.183Z,4.4
2018-12-11T20:12:57.151Z,3.12
2018-12-11T20:18:52.193Z,4.12
2018-12-11T20:24:47.196Z,6.59
2018-12-11T20:30:42.177Z,20.2
2018-12-11T20:36:37.208Z,14.42
2018-12-11T20:42:32.172Z,7.06
2018-12-11T20:48:27.186Z,8.01
2018-12-11T20:54:22.205Z,2.06
2018-12-11T21:00:17.179Z,2.29
2018-12-11T21:06:12.207Z,4.24
2018-12-11T21:12:07.199Z,2.57
2018-12-11T21:18:02.196Z,3.5
2018-12-11T21:23:57.207Z,3.27
2018-12-11T21:29:52.249Z,4.08
2018-12-11T21:35:47.229Z,6.81
2018-12-11T21:41:42.216Z,5.13
2018-12-11T21:47:37.243Z,9.11
2018-12-11T21:53:32.214Z,7.6
2018-12-11T21:59:27.219Z,7.56
2018-12-11T22:05:22.222Z,5.81
2018-12-11T22:11:17.228Z,3.98
2018-12-11T22:17:12.233Z,2.91
2018-12-11T22:23:07.214Z,3.59
2018-12-11T22:29:02.220Z,5.05
2018-12-11T22:34:57.232Z,4.7
2018-12-11T22:40:52.245Z,3.76
2018-12-11T22:46:47.234Z,3.65
2018-12-11T22:52:42.243Z,3.84
2018-12-11T22:58:37.269Z,4.22
2018-12-11T23:04:32.271Z,3.7
2018-12-11T23:10:27.236Z,3.6
2018-12-11T23:16:22.291Z,3.17
2018-12-11T23:22:17.275Z,2.48
2018-12-11T23:28:12.297Z,2.4
2018-12-11T23:34:07.297Z,2.22
2018-12-11T23:40:02.275Z,2.27
2018-12-11T23:45:57.270Z,2.5
2018-12-11T23:51:52.259Z,2.42
2018-12-11T23:57:47.270Z,2.9
